createdAt,value
2022-10-09T00:00:25.002Z,3.47
2022-10-09T00:02:51.769Z,3.67
2022-10-09T00:05:18.556Z,3.80
2022-10-09T00:07:45.008Z,4.20
2022-10-09T00:10:11.590Z,3.70
2022-10-09T00:12:37.989Z,3.93
2022-10-09T00:15:04.567Z,3.80
2022-10-09T00:17:30.988Z,3.93
2022-10-09T00:19:57.393Z,3.83
2022-10-09T00:22:23.786Z,4.50
2022-10-09T00:24:50.170Z,3.87
2022-10-09T00:27:16.587Z,3.80
2022-10-09T00:29:42.947Z,4.50
2022-10-09T00:32:09.399Z,3.87
2022-10-09T00:34:35.993Z,3.57
2022-10-09T00:37:02.532Z,4.17
2022-10-09T00:39:28.942Z,4.23
2022-10-09T00:41:55.459Z,3.80
2022-10-09T00:44:46.403Z,3.50
2022-10-09T00:47:24.313Z,4.00
2022-10-09T00:49:53.242Z,4.50
2022-10-09T00:52:20.678Z,3.77
2022-10-09T00:54:47.357Z,4.00
2022-10-09T00:57:13.975Z,3.60
2022-10-09T00:59:40.722Z,3.37
2022-10-09T01:02:07.593Z,3.07
2022-10-09T01:04:34.254Z,4.00
2022-10-09T01:07:04.902Z,3.17
2022-10-09T01:09:51.382Z,3.87
2022-10-09T01:12:34.406Z,3.47
2022-10-09T01:15:19.245Z,3.70
2022-10-09T01:17:53.667Z,4.00
2022-10-09T01:20:42.778Z,4.13
2022-10-09T01:23:33.806Z,4.77
2022-10-09T01:26:23.332Z,4.20
2022-10-09T01:28:53.340Z,4.10
2022-10-09T01:31:20.893Z,4.00
2022-10-09T01:33:47.872Z,4.07
2022-10-09T01:36:14.995Z,3.77
2022-10-09T01:38:42.349Z,3.70
2022-10-09T01:41:09.245Z,3.40
2022-10-09T01:43:35.839Z,4.83
2022-10-09T01:46:26.658Z,3.90
2022-10-09T01:48:58.025Z,3.97
2022-10-09T01:51:27.773Z,3.60
2022-10-09T01:53:56.380Z,3.37
2022-10-09T01:56:24.330Z,4.30
2022-10-09T01:58:54.783Z,3.97
2022-10-09T02:01:25.398Z,4.60
2022-10-09T02:03:52.145Z,4.00
2022-10-09T02:06:19.519Z,4.37
2022-10-09T02:08:50.295Z,4.50
2022-10-09T02:11:17.837Z,4.57
2022-10-09T02:13:45.594Z,4.03
2022-10-09T02:16:23.187Z,4.37
2022-10-09T02:18:54.816Z,4.93
2022-10-09T02:21:24.320Z,4.90
2022-10-09T02:23:51.689Z,3.97
2022-10-09T02:26:18.672Z,4.30
2022-10-09T02:28:46.230Z,4.40
2022-10-09T02:31:20.818Z,3.97
2022-10-09T02:33:54.911Z,3.47
2022-10-09T02:36:21.450Z,3.83
2022-10-09T02:38:47.833Z,3.33
2022-10-09T02:41:14.220Z,3.67
2022-10-09T02:43:40.603Z,3.90
2022-10-09T02:46:06.992Z,4.03
2022-10-09T02:48:33.400Z,3.60
2022-10-09T02:51:00.942Z,4.63
2022-10-09T02:53:27.720Z,3.90
2022-10-09T02:55:54.250Z,4.70
2022-10-09T02:58:20.653Z,4.43
2022-10-09T03:00:51.157Z,4.90
2022-10-09T03:03:18.058Z,4.30
2022-10-09T03:05:44.597Z,4.30
2022-10-09T03:08:11.093Z,3.80
2022-10-09T03:10:37.985Z,4.53
2022-10-09T03:13:04.844Z,4.50
2022-10-09T03:15:35.491Z,4.33
2022-10-09T03:18:01.954Z,5.13
2022-10-09T03:20:29.972Z,4.67
2022-10-09T03:22:56.833Z,5.57
2022-10-09T03:25:23.357Z,5.03
2022-10-09T03:27:49.792Z,4.50
2022-10-09T03:30:16.250Z,4.77
2022-10-09T03:32:42.674Z,4.87
2022-10-09T03:35:09.223Z,4.50
2022-10-09T03:37:35.636Z,4.90
2022-10-09T03:40:02.009Z,4.93
2022-10-09T03:42:28.421Z,5.03
2022-10-09T03:44:54.871Z,5.00
2022-10-09T03:47:21.460Z,5.17
2022-10-09T03:49:47.972Z,5.70
2022-10-09T03:52:14.563Z,5.17
2022-10-09T03:54:40.928Z,5.27
2022-10-09T03:57:07.389Z,5.60
2022-10-09T03:59:33.775Z,5.80
2022-10-09T04:02:00.201Z,6.37
2022-10-09T04:04:27.136Z,5.67
2022-10-09T04:06:53.547Z,5.80
2022-10-09T04:09:20.072Z,5.77
2022-10-09T04:11:46.466Z,5.23
2022-10-09T04:14:13.002Z,4.90
2022-10-09T04:16:39.493Z,4.60
2022-10-09T04:19:05.933Z,5.20
2022-10-09T04:21:33.669Z,5.53
2022-10-09T04:24:00.136Z,5.57
2022-10-09T04:26:26.604Z,5.77
2022-10-09T04:28:53.151Z,4.90
2022-10-09T04:31:19.567Z,5.73
2022-10-09T04:33:46.038Z,5.57
2022-10-09T04:36:12.438Z,5.60
2022-10-09T04:38:38.826Z,5.93
2022-10-09T04:41:06.733Z,6.27
2022-10-09T04:43:34.581Z,5.47
2022-10-09T04:46:06.110Z,6.00
2022-10-09T04:48:40.547Z,6.07
2022-10-09T04:51:07.583Z,6.27
2022-10-09T04:53:34.461Z,6.23
2022-10-09T04:56:05.821Z,6.23
2022-10-09T04:58:32.462Z,5.83
2022-10-09T05:00:59.237Z,6.97
2022-10-09T05:03:25.640Z,6.53
2022-10-09T05:05:52.024Z,5.97
2022-10-09T05:08:18.434Z,6.53
2022-10-09T05:10:44.852Z,7.00
2022-10-09T05:13:11.439Z,6.23
2022-10-09T05:15:37.845Z,5.93
2022-10-09T05:18:05.411Z,5.90
2022-10-09T05:20:31.790Z,6.20
2022-10-09T05:22:58.249Z,6.40
2022-10-09T05:25:24.634Z,5.87
2022-10-09T05:27:51.161Z,6.70
2022-10-09T05:30:17.629Z,6.73
2022-10-09T05:32:44.033Z,6.70
2022-10-09T05:35:10.430Z,5.77
2022-10-09T05:37:36.905Z,6.17
2022-10-09T05:40:03.704Z,6.67
2022-10-09T05:42:30.233Z,5.97
2022-10-09T05:44:56.630Z,6.67
2022-10-09T05:47:23.072Z,6.07
2022-10-09T05:49:49.662Z,6.10
2022-10-09T05:52:16.219Z,5.43
2022-10-09T05:54:42.620Z,5.23
2022-10-09T05:57:09.665Z,5.90
2022-10-09T05:59:36.102Z,6.07
2022-10-09T06:02:02.643Z,5.67
2022-10-09T06:04:29.333Z,5.63
2022-10-09T06:06:55.898Z,6.23
2022-10-09T06:09:23.757Z,6.70
2022-10-09T06:11:51.188Z,6.60
2022-10-09T06:14:17.793Z,6.50
2022-10-09T06:16:45.149Z,6.77
2022-10-09T06:19:13.247Z,6.57
2022-10-09T06:21:40.361Z,5.80
2022-10-09T06:24:07.352Z,5.90
2022-10-09T06:26:34.669Z,6.57
2022-10-09T06:29:02.243Z,6.73
2022-10-09T06:31:30.967Z,6.27
2022-10-09T06:33:59.824Z,6.50
2022-10-09T06:36:28.507Z,6.00
2022-10-09T06:38:55.057Z,6.67
2022-10-09T06:41:25.755Z,6.23
2022-10-09T06:43:56.330Z,7.40
2022-10-09T06:46:25.120Z,6.40
2022-10-09T06:48:52.013Z,7.47
2022-10-09T06:51:20.333Z,7.70
2022-10-09T06:53:54.743Z,6.77
2022-10-09T06:56:23.066Z,7.07
2022-10-09T06:58:49.756Z,7.20
2022-10-09T07:01:19.040Z,7.97
2022-10-09T07:03:47.913Z,8.57
2022-10-09T07:06:17.066Z,9.23
2022-10-09T07:08:47.849Z,8.23
2022-10-09T07:11:22.185Z,7.93
2022-10-09T07:13:50.606Z,7.87
2022-10-09T07:16:22.309Z,7.93
2022-10-09T07:18:48.930Z,8.00
2022-10-09T07:21:15.951Z,8.80
2022-10-09T07:23:42.403Z,9.70
2022-10-09T07:26:14.868Z,9.33
2022-10-09T07:28:41.989Z,9.07
2022-10-09T07:31:09.079Z,8.60
2022-10-09T07:33:35.647Z,9.20
2022-10-09T07:36:03.847Z,9.43
2022-10-09T07:38:30.571Z,10.50
2022-10-09T07:41:08.574Z,9.20
2022-10-09T07:43:39.800Z,9.00
2022-10-09T07:46:08.315Z,9.67
2022-10-09T07:48:35.264Z,10.17
2022-10-09T07:51:29.072Z,8.77
2022-10-09T07:53:57.137Z,8.90
2022-10-09T07:56:25.839Z,8.40
2022-10-09T07:58:54.549Z,8.50
2022-10-09T08:01:22.125Z,7.87
2022-10-09T08:03:49.200Z,9.20
2022-10-09T08:06:16.061Z,8.57
2022-10-09T08:08:42.795Z,8.37
2022-10-09T08:11:11.021Z,7.53
2022-10-09T08:13:37.831Z,8.60
2022-10-09T08:16:05.249Z,7.77
2022-10-09T08:18:31.728Z,9.03
2022-10-09T08:21:00.277Z,8.93
2022-10-09T08:23:27.016Z,8.57
2022-10-09T08:25:53.482Z,8.13
2022-10-09T08:28:20.337Z,8.23
2022-10-09T08:30:46.777Z,8.87
2022-10-09T08:33:13.483Z,8.40
2022-10-09T08:35:39.928Z,7.83
2022-10-09T08:38:06.488Z,7.97
2022-10-09T08:40:42.139Z,7.27
2022-10-09T08:43:14.725Z,7.33
2022-10-09T08:45:42.939Z,7.80
2022-10-09T08:48:19.950Z,7.43
2022-10-09T08:50:50.107Z,7.10
2022-10-09T08:53:47.119Z,6.50
2022-10-09T08:56:15.417Z,5.80
2022-10-09T08:58:43.485Z,6.27
2022-10-09T09:01:22.295Z,6.07
2022-10-09T09:04:30.264Z,6.00
2022-10-09T09:07:38.118Z,6.00
2022-10-09T09:10:06.394Z,5.43
2022-10-09T09:12:52.085Z,5.10
2022-10-09T09:15:44.802Z,6.40
2022-10-09T09:18:42.554Z,4.60
2022-10-09T09:21:32.862Z,4.67
2022-10-09T09:24:00.872Z,4.17
2022-10-09T09:26:27.556Z,4.50
2022-10-09T09:28:58.858Z,3.67
2022-10-09T09:31:29.581Z,4.50
2022-10-09T09:34:12.645Z,3.43
2022-10-09T09:36:59.875Z,3.50
2022-10-09T09:40:30.895Z,3.33
2022-10-09T09:42:17.901Z,2.50
2022-10-09T09:45:00.551Z,3.00
2022-10-09T09:47:32.360Z,3.00
2022-10-09T09:50:01.752Z,2.63
2022-10-09T09:52:38.551Z,2.77
2022-10-09T09:55:05.418Z,2.50
2022-10-09T09:57:38.667Z,2.50
2022-10-09T10:00:19.686Z,2.80
2022-10-09T10:02:46.520Z,2.10
2022-10-09T10:05:27.364Z,2.20
2022-10-09T10:07:54.598Z,2.10
2022-10-09T10:10:25.614Z,1.90
2022-10-09T10:12:52.667Z,2.13
2022-10-09T10:15:30.817Z,2.20
2022-10-09T10:18:05.147Z,2.47
2022-10-09T10:20:33.582Z,1.80
2022-10-09T10:23:00.636Z,1.60
2022-10-09T10:25:33.404Z,1.90
2022-10-09T10:28:13.014Z,1.63
2022-10-09T10:30:40.031Z,1.83
2022-10-09T10:33:33.587Z,1.83
2022-10-09T10:36:01.189Z,1.60
2022-10-09T10:38:39.602Z,1.80
2022-10-09T10:41:17.816Z,1.90
2022-10-09T10:43:51.410Z,1.60
2022-10-09T10:46:29.523Z,1.80
2022-10-09T10:48:56.763Z,1.63
2022-10-09T10:51:59.860Z,1.40
2022-10-09T10:54:38.043Z,2.20
2022-10-09T10:57:17.484Z,1.70
2022-10-09T10:59:53.108Z,2.10
2022-10-09T11:02:55.546Z,1.90
2022-10-09T11:05:38.817Z,1.70
2022-10-09T11:08:27.088Z,1.70
2022-10-09T11:11:05.266Z,1.80
2022-10-09T11:13:56.540Z,1.80
2022-10-09T11:16:29.009Z,1.70
2022-10-09T11:19:16.989Z,1.80
2022-10-09T11:22:20.757Z,2.13
2022-10-09T11:24:51.901Z,2.00
2022-10-09T11:27:32.059Z,2.40
2022-10-09T11:30:11.397Z,2.33
2022-10-09T11:32:54.691Z,1.97
2022-10-09T11:35:27.044Z,2.13
2022-10-09T11:37:56.541Z,2.10
2022-10-09T11:40:27.678Z,1.80
2022-10-09T11:43:07.238Z,2.37
2022-10-09T11:45:46.571Z,1.70
2022-10-09T11:48:21.894Z,2.07
2022-10-09T11:51:01.503Z,1.90
2022-10-09T11:53:30.562Z,2.87
2022-10-09T11:56:05.756Z,1.43
2022-10-09T11:58:32.320Z,2.00
2022-10-09T12:01:11.030Z,1.97
2022-10-09T12:03:38.566Z,1.83
2022-10-09T12:06:08.575Z,2.00
2022-10-09T12:08:35.758Z,1.93
2022-10-09T12:11:17.273Z,1.80
2022-10-09T12:13:47.675Z,1.70
2022-10-09T12:16:41.868Z,2.00
2022-10-09T12:19:22.655Z,1.90
2022-10-09T12:22:19.888Z,1.87
2022-10-09T12:24:51.222Z,1.77
2022-10-09T12:27:34.583Z,1.70
2022-10-09T12:30:14.097Z,1.50
2022-10-09T12:32:45.391Z,1.93
2022-10-09T12:35:22.508Z,1.50
2022-10-09T12:37:49.168Z,1.60
2022-10-09T12:40:22.282Z,1.70
2022-10-09T12:42:52.166Z,1.63
2022-10-09T12:45:24.539Z,1.50
2022-10-09T12:47:52.182Z,1.40
2022-10-09T12:50:21.865Z,1.73
2022-10-09T12:52:58.002Z,1.60
2022-10-09T12:55:29.897Z,1.70
2022-10-09T12:57:59.969Z,1.37
2022-10-09T13:00:26.433Z,1.93
2022-10-09T13:02:53.367Z,1.53
2022-10-09T13:05:20.081Z,1.23
2022-10-09T13:07:51.993Z,1.47
2022-10-09T13:10:21.295Z,1.43
2022-10-09T13:12:50.928Z,1.73
2022-10-09T13:15:43.947Z,1.50
2022-10-09T13:18:21.229Z,1.93
2022-10-09T13:20:58.421Z,1.50
2022-10-09T13:24:07.325Z,1.57
2022-10-09T13:26:33.863Z,1.60
2022-10-09T13:29:02.644Z,1.30
2022-10-09T13:31:29.089Z,1.50
2022-10-09T13:33:55.517Z,1.23
2022-10-09T13:36:21.946Z,1.50
2022-10-09T13:38:49.089Z,1.50
2022-10-09T13:41:18.885Z,1.57
2022-10-09T13:43:45.522Z,1.43
2022-10-09T13:46:12.003Z,1.33
2022-10-09T13:48:39.477Z,1.40
2022-10-09T13:51:07.423Z,1.27
2022-10-09T13:53:34.207Z,1.33
2022-10-09T13:56:01.341Z,1.40
2022-10-09T13:58:28.291Z,1.50
2022-10-09T14:00:54.830Z,1.33
2022-10-09T14:03:21.951Z,1.60
2022-10-09T14:05:48.340Z,1.33
2022-10-09T14:08:14.910Z,1.33
2022-10-09T14:10:42.551Z,1.53
2022-10-09T14:13:10.222Z,1.20
2022-10-09T14:15:40.554Z,1.23
2022-10-09T14:18:07.764Z,1.37
2022-10-09T14:20:35.179Z,1.10
2022-10-09T14:23:01.833Z,1.20
2022-10-09T14:25:28.626Z,1.27
2022-10-09T14:27:55.223Z,1.00
2022-10-09T14:30:21.782Z,1.10
2022-10-09T14:32:48.820Z,1.30
2022-10-09T14:35:19.344Z,1.30
2022-10-09T14:37:47.816Z,1.47
2022-10-09T14:40:14.256Z,1.10
2022-10-09T14:42:40.698Z,1.00
2022-10-09T14:45:08.225Z,1.20
2022-10-09T14:47:34.759Z,1.10
2022-10-09T14:50:01.350Z,1.20
2022-10-09T14:52:27.777Z,1.00
2022-10-09T14:54:54.151Z,1.23
2022-10-09T14:57:20.917Z,1.20
2022-10-09T14:59:47.410Z,1.33
2022-10-09T15:02:17.580Z,1.10
2022-10-09T15:04:43.953Z,1.10
2022-10-09T15:07:10.394Z,1.30
2022-10-09T15:09:36.866Z,1.50
2022-10-09T15:12:03.474Z,1.00
2022-10-09T15:14:29.854Z,1.60
2022-10-09T15:16:56.274Z,1.13
2022-10-09T15:19:22.695Z,0.90
2022-10-09T15:21:49.350Z,1.30
2022-10-09T15:24:15.716Z,1.30
2022-10-09T15:26:42.216Z,1.00
2022-10-09T15:29:09.067Z,1.27
2022-10-09T15:31:37.811Z,2.10
2022-10-09T15:34:05.077Z,1.30
2022-10-09T15:36:35.171Z,1.20
2022-10-09T15:39:05.685Z,1.33
2022-10-09T15:41:34.253Z,1.87
2022-10-09T15:44:06.963Z,1.60
2022-10-09T15:46:34.066Z,1.33
2022-10-09T15:49:00.463Z,1.30
2022-10-09T15:51:29.375Z,1.10
2022-10-09T15:53:56.398Z,1.47
2022-10-09T15:56:24.363Z,1.17
2022-10-09T15:58:51.615Z,1.53
2022-10-09T16:01:18.777Z,1.60
2022-10-09T16:03:45.538Z,1.40
2022-10-09T16:06:14.994Z,1.20
2022-10-09T16:08:42.078Z,1.30
2022-10-09T16:11:11.141Z,1.30
2022-10-09T16:13:39.834Z,1.67
2022-10-09T16:16:08.231Z,1.30
2022-10-09T16:18:35.204Z,1.50
2022-10-09T16:21:10.106Z,1.87
2022-10-09T16:23:36.690Z,1.53
2022-10-09T16:26:04.261Z,1.03
2022-10-09T16:28:31.364Z,1.23
2022-10-09T16:31:07.298Z,1.37
2022-10-09T16:33:33.794Z,2.23
2022-10-09T16:36:12.820Z,1.37
2022-10-09T16:38:39.818Z,1.40
2022-10-09T16:41:11.757Z,1.60
2022-10-09T16:43:39.001Z,1.43
2022-10-09T16:46:19.722Z,1.20
2022-10-09T16:48:46.838Z,1.60
2022-10-09T16:51:19.985Z,1.70
2022-10-09T16:53:49.249Z,1.70
2022-10-09T16:56:17.493Z,1.67
2022-10-09T16:58:44.109Z,1.60
2022-10-09T17:01:11.871Z,1.37
2022-10-09T17:03:42.238Z,1.50
2022-10-09T17:06:16.464Z,1.60
2022-10-09T17:08:43.233Z,2.40
2022-10-09T17:11:10.952Z,2.30
2022-10-09T17:13:37.878Z,2.87
2022-10-09T17:16:06.791Z,2.17
2022-10-09T17:18:33.502Z,2.43
2022-10-09T17:21:04.609Z,3.10
2022-10-09T17:23:31.423Z,2.90
2022-10-09T17:25:58.007Z,2.30
2022-10-09T17:28:25.159Z,3.00
2022-10-09T17:30:51.666Z,3.10
2022-10-09T17:33:19.967Z,2.73
2022-10-09T17:35:46.576Z,3.00
2022-10-09T17:38:12.999Z,2.67
2022-10-09T17:40:40.382Z,2.57
2022-10-09T17:43:08.029Z,2.50
2022-10-09T17:45:41.490Z,2.60
2022-10-09T17:48:09.059Z,3.03
2022-10-09T17:50:36.153Z,2.80
2022-10-09T17:53:03.249Z,2.47
2022-10-09T17:55:29.798Z,2.77
2022-10-09T17:57:56.355Z,2.20
2022-10-09T18:00:23.163Z,2.33
2022-10-09T18:02:49.806Z,2.40
2022-10-09T18:05:16.258Z,2.60
2022-10-09T18:07:42.776Z,3.10
2022-10-09T18:10:09.282Z,3.03
2022-10-09T18:12:35.669Z,2.90
2022-10-09T18:15:03.011Z,3.10
2022-10-09T18:17:31.663Z,3.07
2022-10-09T18:19:58.240Z,2.80
2022-10-09T18:22:24.643Z,2.53
2022-10-09T18:24:51.043Z,2.70
2022-10-09T18:27:17.643Z,3.00
2022-10-09T18:29:44.012Z,2.67
2022-10-09T18:32:10.407Z,2.40
2022-10-09T18:34:39.259Z,2.37
2022-10-09T18:37:06.213Z,2.43
2022-10-09T18:39:32.697Z,2.63
2022-10-09T18:41:59.253Z,3.20
2022-10-09T18:44:25.759Z,3.33
2022-10-09T18:46:56.041Z,3.60
2022-10-09T18:49:24.758Z,3.87
2022-10-09T18:51:51.610Z,3.30
2022-10-09T18:54:19.467Z,3.03
2022-10-09T18:56:46.344Z,3.50
2022-10-09T18:59:15.313Z,3.23
2022-10-09T19:01:41.734Z,3.23
2022-10-09T19:04:08.540Z,3.37
2022-10-09T19:06:35.214Z,3.00
2022-10-09T19:09:01.749Z,3.63
2022-10-09T19:11:30.207Z,2.73
2022-10-09T19:14:00.128Z,3.20
2022-10-09T19:16:27.722Z,2.50
2022-10-09T19:18:55.102Z,3.30
2022-10-09T19:21:21.630Z,2.87
2022-10-09T19:23:49.130Z,2.83
2022-10-09T19:26:15.700Z,3.17
2022-10-09T19:28:42.538Z,2.93
2022-10-09T19:31:09.998Z,3.20
2022-10-09T19:33:37.909Z,2.90
2022-10-09T19:36:04.614Z,3.50
2022-10-09T19:38:31.132Z,2.93
2022-10-09T19:41:10.001Z,3.13
2022-10-09T19:43:36.926Z,2.90
2022-10-09T19:46:22.716Z,3.20
2022-10-09T19:48:50.173Z,3.20
2022-10-09T19:51:19.358Z,2.57
2022-10-09T19:53:45.791Z,2.90
2022-10-09T19:56:15.774Z,3.23
2022-10-09T19:58:43.472Z,3.17
2022-10-09T20:01:11.193Z,2.90
2022-10-09T20:03:40.082Z,2.97
2022-10-09T20:06:08.691Z,3.13
2022-10-09T20:08:36.126Z,2.57
2022-10-09T20:11:03.624Z,2.90
2022-10-09T20:13:31.225Z,3.30
2022-10-09T20:16:00.984Z,2.57
2022-10-09T20:18:27.957Z,2.50
2022-10-09T20:20:54.506Z,2.90
2022-10-09T20:23:21.181Z,2.83
2022-10-09T20:25:47.740Z,2.57
2022-10-09T20:28:15.517Z,3.00
2022-10-09T20:30:42.645Z,2.70
2022-10-09T20:33:09.464Z,3.20
2022-10-09T20:35:42.665Z,3.03
2022-10-09T20:38:09.075Z,2.73
2022-10-09T20:40:35.540Z,3.10
2022-10-09T20:43:01.978Z,3.37
2022-10-09T20:45:28.682Z,2.53
2022-10-09T20:47:55.144Z,3.23
2022-10-09T20:50:21.553Z,2.80
2022-10-09T20:52:48.425Z,3.17
2022-10-09T20:55:15.079Z,3.23
2022-10-09T20:57:41.571Z,3.23
2022-10-09T21:00:08.638Z,3.30
2022-10-09T21:02:35.064Z,2.90
2022-10-09T21:05:01.488Z,3.27
2022-10-09T21:07:27.914Z,3.00
2022-10-09T21:09:54.295Z,3.07
2022-10-09T21:12:20.735Z,2.90
2022-10-09T21:14:47.124Z,2.80
2022-10-09T21:17:13.660Z,3.43
2022-10-09T21:19:40.058Z,3.03
2022-10-09T21:22:06.525Z,3.23
2022-10-09T21:24:32.919Z,2.90
2022-10-09T21:26:59.419Z,3.60
2022-10-09T21:29:27.018Z,3.30
2022-10-09T21:31:53.461Z,3.80
2022-10-09T21:34:19.841Z,3.07
2022-10-09T21:37:08.790Z,3.50
2022-10-09T21:39:34.401Z,3.67
2022-10-09T21:42:00.811Z,2.93
2022-10-09T21:44:27.603Z,3.27
2022-10-09T21:46:54.223Z,3.53
2022-10-09T21:49:26.951Z,4.23
2022-10-09T21:51:53.739Z,3.27
2022-10-09T21:54:20.807Z,3.43
2022-10-09T21:56:47.286Z,3.23
2022-10-09T21:59:13.703Z,2.97
2022-10-09T22:01:40.298Z,3.30
2022-10-09T22:04:06.714Z,3.23
2022-10-09T22:06:33.137Z,2.83
2022-10-09T22:08:59.922Z,2.90
2022-10-09T22:11:26.367Z,3.43
2022-10-09T22:13:52.774Z,3.17
2022-10-09T22:16:19.319Z,3.20
2022-10-09T22:18:45.927Z,3.03
2022-10-09T22:21:14.642Z,3.47
2022-10-09T22:23:41.440Z,3.50
2022-10-09T22:26:12.545Z,2.90
2022-10-09T22:28:39.062Z,3.30
2022-10-09T22:31:10.627Z,3.37
2022-10-09T22:33:37.267Z,2.80
2022-10-09T22:36:16.675Z,3.10
2022-10-09T22:38:43.771Z,2.93
2022-10-09T22:41:12.692Z,3.70
2022-10-09T22:43:39.788Z,2.90
2022-10-09T22:46:11.137Z,2.73
2022-10-09T22:48:38.362Z,3.00
2022-10-09T22:51:06.349Z,2.70
2022-10-09T22:53:33.548Z,2.97
2022-10-09T22:55:59.959Z,3.00
2022-10-09T22:58:26.610Z,3.00
2022-10-09T23:00:53.237Z,2.50
2022-10-09T23:03:19.686Z,3.10
2022-10-09T23:05:46.116Z,2.50
2022-10-09T23:08:12.554Z,2.47
2022-10-09T23:10:39.908Z,2.43
2022-10-09T23:13:06.326Z,2.50
2022-10-09T23:15:36.836Z,2.70
2022-10-09T23:18:05.063Z,2.40
2022-10-09T23:20:35.825Z,2.77
2022-10-09T23:23:02.235Z,2.70
2022-10-09T23:25:28.652Z,2.00
2022-10-09T23:27:55.051Z,2.53
2022-10-09T23:30:21.619Z,2.50
2022-10-09T23:32:48.288Z,2.23
2022-10-09T23:35:14.922Z,2.20
2022-10-09T23:37:41.325Z,2.77
2022-10-09T23:40:08.025Z,2.77
2022-10-09T23:42:34.583Z,2.90
2022-10-09T23:45:00.973Z,2.07
2022-10-09T23:47:27.433Z,2.43
2022-10-09T23:49:53.973Z,2.10
2022-10-09T23:52:20.507Z,2.50
2022-10-09T23:54:47.045Z,2.40
2022-10-09T23:57:13.446Z,2.23
2022-10-09T23:59:40.049Z,2.40
